Time;durP1;ratioP1;P1;durP2;ratioP2;P2;SDS_P1;SDS_P2;PMS_P1;PMS_P2;Temp;Humidity;BMP_temperature;BMP_pressure;BME280_temperature;BME280_humidity;BME280_pressure;Samples;Min_cycle;Max_cycle;Signal;HPM_P1;HPM_P2
2022/06/08 00:01:18;;;;;;;0.40;0.10;;;;;;;21.62;62.78;99967.39;105019;1279;109386;-82
2022/06/08 00:03:56;;;;;;;0.40;0.10;;;;;;;21.66;62.90;99968.17;104867;1279;140184;-83
2022/06/08 00:06:24;;;;;;;0.40;0.10;;;;;;;21.62;63.46;99966.14;105046;1279;95149;-82
2022/06/08 00:08:53;;;;;;;0.40;0.10;;;;;;;21.57;63.70;99966.08;105029;1279;110374;-80
2022/06/08 00:11:21;;;;;;;0.40;0.10;;;;;;;21.54;64.02;99964.43;105019;1279;139000;-81
2022/06/08 00:13:49;;;;;;;0.40;0.10;;;;;;;21.55;64.36;99972.83;105060;1279;110017;-81
2022/06/08 00:16:19;;;;;;;0.40;0.00;;;;;;;21.57;64.61;99975.21;104819;1279;138362;-80
2022/06/08 00:18:47;;;;;;;0.40;0.10;;;;;;;21.59;64.62;99977.64;104868;1279;95262;-86
2022/06/08 00:21:16;;;;;;;0.40;0.10;;;;;;;21.56;65.05;99975.84;104860;1279;110475;-79
2022/06/08 00:23:44;;;;;;;0.40;0.10;;;;;;;21.58;64.98;99977.86;104915;1279;139106;-81
2022/06/08 00:26:14;;;;;;;0.40;0.00;;;;;;;21.62;65.14;99972.86;105064;1279;111121;-82
2022/06/08 00:28:43;;;;;;;0.40;0.10;;;;;;;21.60;65.01;99972.81;104747;1279;139685;-84
2022/06/08 00:31:11;;;;;;;0.40;0.10;;;;;;;21.60;64.99;99966.30;104921;1279;95081;-80
2022/06/08 00:33:40;;;;;;;0.40;0.10;;;;;;;21.57;65.21;99961.49;104996;1279;140820;-81
2022/06/08 00:36:08;;;;;;;0.40;0.10;;;;;;;21.54;65.44;99956.33;105028;1279;99891;-81
2022/06/08 00:38:36;;;;;;;0.40;0.10;;;;;;;21.58;65.45;99959.27;105023;1279;109382;-82
2022/06/08 00:41:38;;;;;;;0.40;0.10;;;;;;;21.62;65.44;99957.10;104821;1279;140478;-80
2022/06/08 00:44:16;;;;;;;0.40;0.10;;;;;;;21.59;65.42;99956.85;105010;1279;95025;-81
2022/06/08 00:46:45;;;;;;;0.40;0.10;;;;;;;21.53;65.56;99963.58;104946;1279;137699;-85
2022/06/08 00:49:23;;;;;;;0.40;0.10;;;;;;;21.53;65.82;99966.27;105091;1279;98648;-80
2022/06/08 00:51:52;;;;;;;0.40;0.10;;;;;;;21.57;65.59;99962.39;105001;1279;140228;-79
2022/06/08 00:54:51;;;;;;;0.40;0.10;;;;;;;21.61;65.43;99955.79;105034;1279;95192;-81
2022/06/08 00:57:25;;;;;;;0.40;0.10;;;;;;;21.54;65.34;99954.86;104905;1279;95238;-84
2022/06/08 01:00:04;;;;;;;0.40;0.10;;;;;;;21.48;65.41;99950.98;105228;1279;110404;-79
2022/06/08 01:02:32;;;;;;;0.40;0.00;;;;;;;21.52;65.52;99951.77;104969;1279;98868;-81
2022/06/08 01:05:28;;;;;;;0.40;0.10;;;;;;;21.59;65.40;99946.75;104652;1281;141844;-80
2022/06/08 01:08:04;;;;;;;0.40;0.10;;;;;;;21.58;65.05;99942.11;106696;1279;94033;-86
2022/06/08 01:10:45;;;;;;;0.40;0.10;;;;;;;21.53;65.33;99937.55;107112;1278;138844;-81
2022/06/08 01:13:13;;;;;;;0.40;0.10;;;;;;;21.53;65.34;99933.11;105434;1280;109207;-81
2022/06/08 01:15:42;;;;;;;0.40;0.00;;;;;;;21.45;65.40;99930.59;104893;1279;138332;-80
2022/06/08 01:18:13;;;;;;;0.40;0.10;;;;;;;21.48;65.41;99924.81;105029;1279;109316;-81
2022/06/08 01:20:55;;;;;;;0.40;0.10;;;;;;;21.40;65.58;99916.02;105053;1280;95806;-81
2022/06/08 01:23:26;;;;;;;0.40;0.10;;;;;;;21.27;65.60;99909.85;104868;1280;140523;-79
2022/06/08 01:26:22;;;;;;;0.40;0.00;;;;;;;21.25;65.95;99909.13;105409;1279;110678;-81
2022/06/08 01:29:09;;;;;;;0.40;0.10;;;;;;;21.31;65.64;99902.08;104647;1279;139685;-82
2022/06/08 01:31:53;;;;;;;0.40;0.10;;;;;;;21.37;65.50;99897.10;104869;1278;109326;-80
2022/06/08 01:34:37;;;;;;;0.40;0.10;;;;;;;21.33;65.60;99892.91;104828;1277;139854;-80
2022/06/08 01:37:16;;;;;;;0.40;0.10;;;;;;;21.32;65.77;99897.48;105099;1279;95138;-82
2022/06/08 01:40:02;;;;;;;0.40;0.10;;;;;;;21.37;65.56;99897.44;104986;1277;140012;-79
2022/06/08 01:42:54;;;;;;;0.40;0.10;;;;;;;21.31;65.17;99892.34;104657;1279;99485;-82
2022/06/08 01:45:47;;;;;;;0.40;0.10;;;;;;;21.32;65.38;99897.52;104710;1279;108371;-83
2022/06/08 01:48:27;;;;;;;0.40;0.10;;;;;;;21.30;65.32;99892.63;105227;1278;95186;-81
2022/06/08 01:51:13;;;;;;;0.40;0.10;;;;;;;21.26;65.32;99895.26;107041;1279;94562;-79
2022/06/08 01:53:53;;;;;;;0.40;0.10;;;;;;;21.33;65.37;99895.45;107011;1278;140655;-77
2022/06/08 01:56:37;;;;;;;0.40;0.10;;;;;;;21.32;65.11;99893.15;105590;1279;97176;-79
2022/06/08 01:59:21;;;;;;;0.40;0.10;;;;;;;21.19;65.28;99884.77;104779;1279;138496;-82
2022/06/08 02:02:10;;;;;;;0.40;0.10;;;;;;;21.01;65.81;99880.29;105071;1280;95617;-81
2022/06/08 02:04:48;;;;;;;0.40;0.10;;;;;;;20.99;65.91;99877.31;104675;1280;140593;-80
2022/06/08 02:07:35;;;;;;;0.40;0.10;;;;;;;21.03;65.92;99873.25;105270;1278;110490;-79
2022/06/08 02:10:26;;;;;;;0.40;0.10;;;;;;;20.97;66.07;99875.11;104960;1279;140552;-79
2022/06/08 02:13:05;;;;;;;0.40;0.10;;;;;;;20.99;66.23;99875.59;105193;1279;109287;-82
2022/06/08 02:15:40;;;;;;;0.40;0.10;;;;;;;21.05;65.86;99877.44;105122;1280;139238;-83
2022/06/08 02:18:25;;;;;;;0.40;0.10;;;;;;;21.08;65.71;99877.77;105211;1278;95211;-82
2022/06/08 02:21:23;;;;;;;0.40;0.10;;;;;;;21.08;65.49;99881.00;104946;1278;110326;-84
2022/06/08 02:23:57;;;;;;;0.40;0.10;;;;;;;21.12;65.49;99878.72;104879;1280;98866;-81
2022/06/08 02:26:35;;;;;;;0.40;0.10;;;;;;;21.15;65.24;99882.08;105074;1279;105460;-83
2022/06/08 02:29:22;;;;;;;0.40;0.10;;;;;;;21.18;65.32;99884.72;104965;1279;141702;-81
2022/06/08 02:34:27;;;;;;;0.40;0.10;;;;;;;21.18;65.25;99884.51;104943;1280;96505;-80
2022/06/08 02:34:58;;;;;;;0.40;0.10;;;;;;;21.13;65.42;99886.35;104662;1278;140772;-81
2022/06/08 02:37:31;;;;;;;0.40;0.10;;;;;;;21.09;65.46;99886.02;104932;1280;98360;-82
2022/06/08 02:40:09;;;;;;;0.40;0.10;;;;;;;21.10;65.43;99889.16;104809;1280;141562;-83
2022/06/08 02:42:45;;;;;;;0.40;0.10;;;;;;;21.10;65.46;99882.46;105027;1278;95231;-81
2022/06/08 02:45:19;;;;;;;0.40;0.10;;;;;;;21.04;65.88;99884.30;104875;1278;96122;-81
2022/06/08 02:47:51;;;;;;;0.40;0.10;;;;;;;21.01;65.63;99882.98;104929;1280;140567;-82
2022/06/08 02:50:26;;;;;;;0.40;0.10;;;;;;;20.89;65.76;99884.24;104239;1278;100146;-78
2022/06/08 02:53:30;;;;;;;0.40;0.10;;;;;;;20.84;66.02;99881.75;104477;1280;139071;-78
2022/06/08 02:56:08;;;;;;;0.40;0.10;;;;;;;20.84;66.00;99877.65;104267;1280;95500;-78
2022/06/08 02:58:47;;;;;;;0.40;0.10;;;;;;;20.72;66.35;99882.15;104230;1279;140127;-81
2022/06/08 03:01:38;;;;;;;0.40;0.10;;;;;;;20.57;66.84;99886.46;105279;1277;108781;-79
2022/06/08 03:04:21;;;;;;;0.40;0.10;;;;;;;20.49;66.95;99889.27;104934;1280;139292;-83
2022/06/08 03:06:55;;;;;;;0.40;0.10;;;;;;;20.50;67.03;99892.08;105115;1278;109372;-82
2022/06/08 03:09:25;;;;;;;0.40;0.10;;;;;;;20.49;66.91;99892.85;104822;1277;95211;-80
2022/06/08 03:12:00;;;;;;;0.40;0.10;;;;;;;20.47;67.10;99900.42;105102;1280;95313;-86
2022/06/08 03:14:31;;;;;;;0.40;0.10;;;;;;;20.44;67.16;99902.08;104991;1277;110156;-81
2022/06/08 03:17:10;;;;;;;0.40;0.10;;;;;;;20.43;67.19;99902.52;104845;1281;138455;-80
2022/06/08 03:19:39;;;;;;;0.40;0.10;;;;;;;20.43;67.09;99907.55;104879;1281;110087;-81
2022/06/08 03:22:08;;;;;;;0.40;0.10;;;;;;;20.43;67.31;99905.95;104882;1278;140472;-80
2022/06/08 03:24:36;;;;;;;0.40;0.10;;;;;;;20.47;67.00;99898.59;104946;1279;95132;-83
2022/06/08 03:27:08;;;;;;;0.40;0.10;;;;;;;20.51;67.01;99894.48;104879;1280;109160;-79
2022/06/08 03:29:38;;;;;;;0.40;0.10;;;;;;;20.52;66.80;99890.45;105038;1280;139289;-80
2022/06/08 03:32:07;;;;;;;0.40;0.10;;;;;;;20.56;66.84;99885.85;104789;1281;109257;-82
2022/06/08 03:34:37;;;;;;;0.40;0.10;;;;;;;20.55;66.76;99879.41;104151;1281;142315;-80
2022/06/08 03:37:05;;;;;;;0.40;0.10;;;;;;;20.61;66.96;99872.48;104375;1281;95957;-80
2022/06/08 03:39:35;;;;;;;0.40;0.10;;;;;;;20.74;66.66;99869.33;104473;1281;137857;-85
2022/06/08 03:42:10;;;;;;;0.40;0.10;;;;;;;20.81;66.27;99873.53;104371;1277;97095;-79
2022/06/08 03:44:41;;;;;;;0.40;0.10;;;;;;;20.72;66.22;99878.20;104422;1281;109683;-79
2022/06/08 03:47:14;;;;;;;0.40;0.10;;;;;;;20.64;66.43;99878.57;104642;1278;138779;-81
2022/06/08 03:49:42;;;;;;;0.40;0.10;;;;;;;20.63;66.52;99880.06;104945;1278;95236;-78
2022/06/08 03:52:15;;;;;;;0.40;0.10;;;;;;;20.64;66.50;99887.95;104363;1278;138599;-80
2022/06/08 03:54:48;;;;;;;0.40;0.10;;;;;;;20.63;66.64;99894.88;104513;1278;100610;-79
2022/06/08 03:57:17;;;;;;;0.40;0.10;;;;;;;20.64;67.03;99892.41;104499;1278;109281;-83
2022/06/08 03:59:48;;;;;;;0.40;0.10;;;;;;;20.65;66.80;99894.53;104346;1278;139089;-82
2022/06/08 04:02:16;;;;;;;0.40;0.10;;;;;;;20.77;66.57;99895.49;104882;1280;95645;-83
2022/06/08 04:04:45;;;;;;;0.40;0.10;;;;;;;20.86;66.41;99894.23;105129;1278;141010;-82
2022/06/08 04:07:14;;;;;;;0.40;0.10;;;;;;;20.90;66.31;99894.52;105002;1278;99912;-82
2022/06/08 04:09:45;;;;;;;0.40;0.10;;;;;;;20.88;66.01;99896.05;104874;1277;139215;-84
2022/06/08 04:12:14;;;;;;;0.40;0.10;;;;;;;20.82;65.75;99900.16;104499;1280;95576;-79
2022/06/08 04:14:42;;;;;;;0.40;0.10;;;;;;;20.80;65.94;99904.63;104482;1281;97401;-79
2022/06/08 04:17:12;;;;;;;0.40;0.10;;;;;;;20.80;65.86;99906.27;104488;1281;140575;-80
2022/06/08 04:19:40;;;;;;;0.40;0.10;;;;;;;20.81;65.71;99907.11;104462;1278;100355;-81
2022/06/08 04:22:08;;;;;;;0.40;0.10;;;;;;;20.87;65.65;99912.02;104377;1278;141147;-80
2022/06/08 04:24:37;;;;;;;0.40;0.10;;;;;;;20.97;65.65;99913.07;104516;1280;95236;-82
2022/06/08 04:27:05;;;;;;;0.40;0.10;;;;;;;21.03;65.32;99920.65;104922;1278;95117;-81
2022/06/08 04:29:40;;;;;;;0.40;0.10;;;;;;;21.03;65.29;99924.33;104768;1278;140946;-84
2022/06/08 04:32:11;;;;;;;0.40;0.10;;;;;;;21.05;65.08;99924.49;104472;1278;99501;-86
2022/06/08 04:34:41;;;;;;;0.40;0.10;;;;;;;21.09;65.35;99931.47;105556;1278;140706;-79
2022/06/08 04:37:13;;;;;;;0.40;0.10;;;;;;;21.13;65.07;99936.39;107036;1277;96429;-83
2022/06/08 04:39:46;;;;;;;0.40;0.10;;;;;;;21.11;64.97;99936.21;105521;1280;138720;-81
2022/06/08 04:42:18;;;;;;;0.40;0.10;;;;;;;21.11;64.83;99937.84;104790;1281;109858;-80
2022/06/08 04:44:46;;;;;;;0.40;0.10;;;;;;;21.01;65.15;99938.39;104855;1280;99693;-81
2022/06/08 04:47:18;;;;;;;0.40;0.10;;;;;;;21.03;65.03;99935.70;104949;1280;139777;-79
2022/06/08 04:49:46;;;;;;;0.40;0.10;;;;;;;21.08;64.90;99936.59;105038;1280;95761;-81
2022/06/08 04:52:15;;;;;;;0.40;0.10;;;;;;;21.10;64.88;99936.95;104888;1280;139851;-80
2022/06/08 04:54:44;;;;;;;0.40;0.10;;;;;;;21.15;64.82;99940.02;104921;1281;108709;-79
2022/06/08 04:57:13;;;;;;;0.40;0.10;;;;;;;21.04;64.53;99936.71;105265;1281;99860;-80
2022/06/08 04:59:44;;;;;;;0.40;0.10;;;;;;;21.08;64.88;99939.11;104918;1280;138543;-80
2022/06/08 05:05:13;;;;;;;0.40;0.10;;;;;;;20.97;64.80;99937.21;105064;1280;138722;-81
2022/06/08 05:07:41;;;;;;;0.40;0.10;;;;;;;21.08;64.59;99938.59;105234;1280;110483;-80
2022/06/08 05:10:10;;;;;;;0.40;0.10;;;;;;;21.09;64.37;99939.06;105058;1280;140248;-80
2022/06/08 05:12:40;;;;;;;0.40;0.10;;;;;;;21.06;64.25;99938.54;105091;1281;109772;-81
2022/06/08 05:15:13;;;;;;;0.40;0.10;;;;;;;21.10;64.22;99940.42;105228;1280;95262;-80
2022/06/08 05:17:42;;;;;;;0.40;0.10;;;;;;;21.13;64.16;99938.75;104937;1280;138896;-81
2022/06/08 05:20:12;;;;;;;0.40;0.10;;;;;;;21.15;64.18;99942.15;104473;1281;110570;-80
2022/06/08 05:22:40;;;;;;;0.40;0.10;;;;;;;21.21;63.82;99933.24;104918;1280;138296;-81
2022/06/08 05:25:11;;;;;;;0.40;0.10;;;;;;;21.25;64.03;99934.56;104998;1280;106772;-80
2022/06/08 05:27:39;;;;;;;0.40;0.10;;;;;;;21.35;63.98;99930.85;104967;1280;140228;-83
2022/06/08 05:30:10;;;;;;;0.40;0.10;;;;;;;21.42;63.94;99934.48;105009;1279;95139;-82
2022/06/08 05:32:41;;;;;;;0.40;0.10;;;;;;;21.60;63.42;99935.05;104966;1280;110238;-83
2022/06/08 05:35:09;;;;;;;0.40;0.10;;;;;;;21.74;63.05;99941.14;105004;1280;141499;-82
2022/06/08 05:37:37;;;;;;;0.40;0.10;;;;;;;21.90;62.42;99937.35;104722;1280;109334;-82
2022/06/08 05:40:09;;;;;;;0.40;0.10;;;;;;;21.98;62.15;99934.73;104911;1280;141621;-83
2022/06/08 05:42:38;;;;;;;0.40;0.10;;;;;;;22.13;61.83;99935.08;104933;1278;95800;-81
2022/06/08 05:45:08;;;;;;;0.40;0.10;;;;;;;22.21;60.90;99930.67;104908;1278;109299;-81
2022/06/08 05:47:37;;;;;;;0.40;0.00;;;;;;;22.17;60.90;99932.84;104871;1279;140232;-81
2022/06/08 05:50:06;;;;;;;0.40;0.10;;;;;;;22.23;61.20;99932.68;104864;1280;109488;-80
2022/06/08 05:52:34;;;;;;;0.40;0.10;;;;;;;22.32;61.16;99936.27;104728;1279;138669;-82
2022/06/08 05:55:03;;;;;;;0.40;0.10;;;;;;;22.38;60.76;99936.34;104857;1280;95129;-82
2022/06/08 05:57:31;;;;;;;0.40;0.00;;;;;;;22.45;60.63;99938.71;104867;1275;139882;-80
2022/06/08 06:00:03;;;;;;;0.40;0.10;;;;;;;22.38;60.21;99938.67;104884;1280;98029;-81
2022/06/08 06:02:42;;;;;;;0.40;0.10;;;;;;;22.31;60.90;99936.18;105478;1277;106597;-81
2022/06/08 06:05:16;;;;;;;0.40;0.10;;;;;;;22.23;60.83;99935.96;105026;1280;139054;-82
2022/06/08 06:07:45;;;;;;;0.40;0.10;;;;;;;22.22;60.74;99933.85;105059;1277;95128;-82
2022/06/08 06:10:37;;;;;;;0.40;0.10;;;;;;;22.21;61.05;99929.39;105160;1280;138889;-79
2022/06/08 06:13:07;;;;;;;0.40;0.10;;;;;;;22.22;60.75;99925.16;105794;1277;98553;-83
2022/06/08 06:15:42;;;;;;;0.40;0.10;;;;;;;22.26;60.47;99926.66;107017;1277;137773;-81
2022/06/08 06:18:16;;;;;;;0.40;0.10;;;;;;;22.33;60.34;99927.39;106901;1277;95188;-81
2022/06/08 06:20:48;;;;;;;0.40;0.00;;;;;;;22.32;60.42;99925.25;105449;1277;95224;-82
2022/06/08 06:23:26;;;;;;;0.40;0.10;;;;;;;22.36;60.52;99927.14;105427;1277;138367;-82
2022/06/08 06:26:02;;;;;;;0.40;0.10;;;;;;;22.37;60.07;99937.29;105179;1279;97133;-81
2022/06/08 06:28:43;;;;;;;0.40;0.10;;;;;;;22.37;60.06;99935.70;105058;1279;140851;-80
2022/06/08 06:31:23;;;;;;;0.40;0.10;;;;;;;22.42;60.04;99934.22;105070;1277;95773;-82
2022/06/08 06:33:59;;;;;;;0.40;0.10;;;;;;;22.39;60.25;99936.13;105130;1278;139555;-81
2022/06/08 06:36:28;;;;;;;0.40;0.10;;;;;;;22.27;60.08;99934.54;105058;1278;110851;-80
2022/06/08 06:38:58;;;;;;;0.40;0.10;;;;;;;22.24;60.50;99938.62;105167;1278;100168;-81
2022/06/08 06:41:27;;;;;;;0.40;0.10;;;;;;;22.24;60.51;99940.02;105106;1278;140219;-81
2022/06/08 06:43:55;;;;;;;0.40;0.10;;;;;;;22.27;60.55;99938.16;105224;1279;95750;-81
2022/06/08 06:46:33;;;;;;;0.40;0.10;;;;;;;22.28;60.71;99933.70;105175;1277;138943;-81
2022/06/08 06:49:06;;;;;;;0.40;0.10;;;;;;;22.32;60.70;99931.79;105218;1277;108314;-80
2022/06/08 06:51:35;;;;;;;0.40;0.10;;;;;;;22.34;60.54;99931.60;105070;1278;139680;-80
2022/06/08 06:54:06;;;;;;;0.40;0.10;;;;;;;22.40;60.22;99934.54;105110;1279;109300;-82
2022/06/08 06:56:36;;;;;;;0.40;0.10;;;;;;;22.47;60.37;99935.95;105378;1278;95708;-81
2022/06/08 06:59:09;;;;;;;0.40;0.10;;;;;;;22.50;60.23;99935.49;105153;1277;137280;-82
2022/06/08 07:01:37;;;;;;;0.40;0.10;;;;;;;22.49;59.93;99933.09;105114;1278;109471;-81
2022/06/08 07:04:05;;;;;;;0.40;0.10;;;;;;;22.45;59.55;99931.58;104847;1278;141363;-81
2022/06/08 07:06:33;;;;;;;0.40;0.10;;;;;;;22.42;59.71;99928.45;104982;1279;109438;-81
2022/06/08 07:09:03;;;;;;;0.40;0.10;;;;;;;22.46;59.58;99923.00;105150;1279;95230;-83
2022/06/08 07:11:39;;;;;;;0.40;0.10;;;;;;;22.50;59.99;99927.05;105153;1277;138478;-81
2022/06/08 07:14:28;;;;;;;0.40;0.10;;;;;;;22.56;59.95;99929.11;104999;1277;109660;-81
2022/06/08 07:17:09;;;;;;;0.40;0.10;;;;;;;22.56;59.68;99934.30;104990;1277;139066;-82
2022/06/08 07:19:39;;;;;;;0.40;0.10;;;;;;;22.48;59.61;99937.92;105168;1279;109570;-81
2022/06/08 07:22:09;;;;;;;0.40;0.10;;;;;;;22.44;59.94;99938.23;105004;1277;140059;-81
2022/06/08 07:24:37;;;;;;;0.40;0.10;;;;;;;22.46;59.93;99937.70;105234;1277;95195;-82
2022/06/08 07:27:05;;;;;;;0.40;0.10;;;;;;;22.44;60.62;99939.89;105010;1277;110581;-82
2022/06/08 07:29:33;;;;;;;0.40;0.10;;;;;;;22.47;61.07;99938.17;104811;1279;141015;-83
2022/06/08 07:32:02;;;;;;;0.40;0.10;;;;;;;22.45;61.11;99938.70;105034;1277;108365;-83
2022/06/08 07:34:31;;;;;;;0.40;0.10;;;;;;;22.41;61.28;99939.94;104972;1277;140817;-80
2022/06/08 07:37:00;;;;;;;0.40;0.10;;;;;;;22.42;61.21;99940.36;105179;1277;95240;-84
2022/06/08 07:39:28;;;;;;;0.40;0.10;;;;;;;22.46;61.32;99941.48;104980;1279;140819;-80
2022/06/08 07:41:56;;;;;;;0.40;0.10;;;;;;;22.53;61.14;99948.63;105208;1279;100464;-80
2022/06/08 07:44:24;;;;;;;0.40;0.10;;;;;;;22.52;60.95;99951.48;105326;1278;108294;-82
2022/06/08 07:46:52;;;;;;;0.40;0.10;;;;;;;22.46;60.79;99950.50;105014;1277;140085;-82
2022/06/08 07:49:39;;;;;;;0.40;0.10;;;;;;;22.38;60.87;99946.09;105348;1278;95207;-81
2022/06/08 07:52:19;;;;;;;0.40;0.10;;;;;;;22.35;60.61;99948.76;105134;1277;138768;-81
2022/06/08 07:54:48;;;;;;;0.40;0.10;;;;;;;22.28;60.77;99945.30;105422;1277;100090;-83
2022/06/08 07:57:23;;;;;;;0.40;0.10;;;;;;;22.33;61.13;99942.50;105267;1279;107848;-83
2022/06/08 07:59:52;;;;;;;0.40;0.10;;;;;;;22.41;60.83;99943.02;105335;1279;138774;-82
2022/06/08 08:02:20;;;;;;;0.40;0.10;;;;;;;22.47;60.49;99943.23;107168;1278;95127;-84
2022/06/08 08:04:48;;;;;;;0.40;0.10;;;;;;;22.45;60.15;99948.27;107337;1277;137962;-85
2022/06/08 08:07:16;;;;;;;0.40;0.10;;;;;;;22.48;59.99;99947.69;106090;1277;98485;-83
2022/06/08 08:09:44;;;;;;;0.40;0.10;;;;;;;22.55;59.88;99946.17;105325;1277;139065;-83
2022/06/08 08:12:12;;;;;;;0.40;0.10;;;;;;;22.55;59.59;99941.24;105206;1279;95126;-84
2022/06/08 08:14:41;;;;;;;0.40;0.10;;;;;;;22.60;59.98;99942.71;105197;1277;95736;-83
2022/06/08 08:18:09;;;;;;;0.40;0.10;;;;;;;22.77;60.14;99942.72;100892;1309;634564;-69
2022/06/08 08:20:37;;;;;;;0.40;0.10;;;;;;;22.87;59.78;99944.17;103217;1287;94344;-70
2022/06/08 08:23:06;;;;;;;0.40;0.10;;;;;;;22.94;59.64;99944.50;103058;1287;137287;-69
2022/06/08 08:25:35;;;;;;;0.40;0.10;;;;;;;23.04;59.85;99944.70;103033;1289;105657;-70
2022/06/08 08:28:04;;;;;;;0.40;0.10;;;;;;;23.15;59.66;99943.05;102884;1289;137391;-70
2022/06/08 08:30:32;;;;;;;0.40;0.10;;;;;;;23.20;58.76;99945.60;103015;1290;108820;-69
2022/06/08 08:33:01;;;;;;;0.40;0.10;;;;;;;23.09;58.80;99948.30;102595;1286;292675;-70
2022/06/08 08:35:29;;;;;;;0.40;0.10;;;;;;;23.10;59.55;99947.16;103284;1286;137728;-70
2022/06/08 08:37:59;;;;;;;0.40;0.10;;;;;;;23.15;59.57;99948.73;103464;1287;105667;-70
2022/06/08 08:40:55;;;;;;;0.40;0.10;;;;;;;23.21;58.80;99949.45;103381;1283;137552;-70
2022/06/08 08:43:27;;;;;;;0.40;0.10;;;;;;;23.28;58.74;99958.33;103345;1283;108754;-71
2022/06/08 08:46:09;;;;;;;0.40;0.10;;;;;;;23.34;58.68;99956.89;103468;1283;138229;-70
2022/06/08 08:48:53;;;;;;;0.40;0.10;;;;;;;23.45;58.51;99949.39;104412;1281;94719;-70
2022/06/08 08:51:23;;;;;;;0.40;0.10;;;;;;;23.57;58.14;99951.21;104144;1281;107935;-70
2022/06/08 08:54:19;;;;;;;0.40;0.00;;;;;;;23.65;56.97;99949.48;103907;1280;137099;-70
2022/06/08 08:56:50;;;;;;;0.40;0.10;;;;;;;23.61;57.22;99948.23;104027;1280;108889;-70
2022/06/08 08:59:24;;;;;;;0.40;0.10;;;;;;;23.67;56.83;99946.37;103955;1281;137986;-69
2022/06/08 09:01:55;;;;;;;0.40;0.10;;;;;;;23.66;56.60;99945.71;103682;1283;94403;-69
2022/06/08 09:04:34;;;;;;;0.40;0.10;;;;;;;23.71;56.39;99946.20;103543;1278;137306;-70
2022/06/08 09:07:18;;;;;;;0.40;0.10;;;;;;;23.74;56.09;99946.86;103763;1281;99374;-71
2022/06/08 09:09:46;;;;;;;0.40;0.10;;;;;;;23.83;56.42;99947.13;103787;1280;137678;-70
2022/06/08 09:12:20;;;;;;;0.40;0.10;;;;;;;23.95;55.67;99948.09;104002;1277;94417;-70
2022/06/08 09:15:00;;;;;;;0.40;0.10;;;;;;;24.09;56.02;99940.52;104110;1280;94311;-69
2022/06/08 09:17:37;;;;;;;0.40;0.10;;;;;;;24.37;55.64;99945.23;104032;1278;137409;-70
2022/06/08 09:20:22;;;;;;;0.40;0.10;;;;;;;24.51;55.87;99945.37;104102;1281;99376;-70
2022/06/08 09:22:54;;;;;;;0.40;0.10;;;;;;;24.72;55.32;99944.27;103933;1281;137141;-70
2022/06/08 09:25:38;;;;;;;0.40;0.10;;;;;;;24.74;54.25;99944.95;104096;1281;95088;-69
2022/06/08 09:28:28;;;;;;;0.40;0.10;;;;;;;24.75;54.15;99944.90;103565;1281;137293;-71
2022/06/08 09:30:57;;;;;;;0.40;0.10;;;;;;;24.73;53.01;99941.37;104158;1281;107543;-70
2022/06/08 09:33:37;;;;;;;0.40;0.10;;;;;;;24.71;53.21;99938.85;104056;1280;99910;-70
2022/06/08 09:36:25;;;;;;;0.40;0.10;;;;;;;24.64;52.66;99941.48;103721;1281;108715;-71
2022/06/08 09:38:54;;;;;;;0.40;0.10;;;;;;;24.67;53.91;99939.95;103751;1281;94798;-71
2022/06/08 09:41:37;;;;;;;0.40;0.10;;;;;;;25.05;53.24;99940.40;104121;1280;137203;-69
2022/06/08 09:44:24;;;;;;;0.40;0.10;;;;;;;25.36;52.78;99944.02;104030;1281;105985;-70
2022/06/08 09:52:54;;;;;;;0.40;0.00;;;;;;;26.05;49.73;99937.36;104004;1281;137559;-70
2022/06/08 09:55:54;;;;;;;0.40;0.10;;;;;;;25.86;50.63;99944.15;104044;1281;94303;-71
2022/06/08 09:58:56;;;;;;;0.40;0.00;;;;;;;25.64;50.65;99945.88;103280;1281;138279;-70
2022/06/08 10:01:52;;;;;;;0.40;0.00;;;;;;;25.45;50.99;99951.15;104089;1280;99355;-70
2022/06/08 10:04:32;;;;;;;0.40;0.00;;;;;;;25.29;51.13;99947.97;103492;1281;137312;-70
2022/06/08 10:07:56;;;;;;;0.40;0.10;;;;;;;25.30;51.23;99944.05;104021;1281;94449;-69
2022/06/08 10:10:38;;;;;;;0.40;0.10;;;;;;;25.18;51.84;99945.55;103832;1281;137140;-71
2022/06/08 10:13:42;;;;;;;0.40;0.10;;;;;;;25.13;51.74;99940.60;104108;1281;106794;-70
2022/06/08 10:16:18;;;;;;;0.40;0.00;;;;;;;25.19;51.55;99938.48;103689;1281;138459;-71
2022/06/08 10:18:56;;;;;;;0.40;0.10;;;;;;;25.33;51.71;99936.48;104076;1281;108846;-69
2022/06/08 10:21:28;;;;;;;0.40;0.00;;;;;;;25.33;51.25;99933.19;103639;1281;94602;-70
2022/06/08 10:24:00;;;;;;;0.40;0.10;;;;;;;25.28;51.40;99929.19;103578;1281;137610;-69
2022/06/08 10:26:39;;;;;;;0.40;0.00;;;;;;;25.48;50.80;99924.56;103624;1281;107266;-69
2022/06/08 10:29:23;;;;;;;0.40;0.00;;;;;;;25.57;50.46;99924.55;104030;1280;138038;-70
2022/06/08 10:32:21;;;;;;;0.40;0.00;;;;;;;25.51;49.25;99923.10;104068;1280;107942;-70
2022/06/08 10:34:54;;;;;;;0.40;0.00;;;;;;;25.43;50.37;99922.50;103886;1281;138094;-70
2022/06/08 10:37:37;;;;;;;0.40;0.10;;;;;;;25.40;50.64;99924.79;104116;1281;94321;-70
2022/06/08 10:40:32;;;;;;;0.40;0.10;;;;;;;25.35;50.43;99923.05;103988;1281;137982;-69
2022/06/08 10:43:00;;;;;;;0.40;0.10;;;;;;;25.36;50.51;99924.63;103652;1277;98834;-70
2022/06/08 10:45:42;;;;;;;0.40;0.00;;;;;;;25.39;50.32;99926.68;104190;1280;109297;-71
2022/06/08 10:48:17;;;;;;;0.40;0.00;;;;;;;25.32;50.42;99931.16;104157;1277;94405;-70
2022/06/08 10:50:48;;;;;;;0.40;0.10;;;;;;;25.25;50.62;99926.39;104088;1280;94626;-70
2022/06/08 10:56:35;;;;;;;0.40;0.10;;;;;;;25.38;50.49;99915.66;104120;1280;97236;-70
2022/06/08 10:59:03;;;;;;;0.40;0.00;;;;;;;25.52;50.65;99912.13;104009;1280;137326;-70
2022/06/08 11:01:55;;;;;;;0.40;0.00;;;;;;;25.60;50.36;99913.58;104069;1280;94225;-69
2022/06/08 11:04:33;;;;;;;0.40;0.00;;;;;;;25.69;50.31;99915.01;103969;1280;137457;-71
2022/06/08 11:07:05;;;;;;;0.40;0.00;;;;;;;25.77;49.40;99917.00;103586;1279;106950;-70
2022/06/08 11:09:39;;;;;;;0.40;0.00;;;;;;;25.74;50.10;99918.36;103490;1278;137955;-71
2022/06/08 11:12:10;;;;;;;0.40;0.10;;;;;;;25.59;50.55;99915.16;104079;1277;108713;-69
2022/06/08 11:14:47;;;;;;;0.40;0.00;;;;;;;25.65;50.51;99916.67;104087;1278;94213;-72
2022/06/08 11:17:32;;;;;;;0.40;0.00;;;;;;;25.74;50.34;99920.02;103975;1278;137440;-69
2022/06/08 11:20:29;;;;;;;0.40;0.00;;;;;;;25.80;49.95;99921.41;104130;1277;105015;-69
2022/06/08 11:23:05;;;;;;;0.40;0.00;;;;;;;25.80;49.56;99922.16;104020;1277;137983;-71
2022/06/08 11:25:44;;;;;;;0.40;0.00;;;;;;;25.77;49.34;99918.83;104085;1278;109224;-70
2022/06/08 11:28:24;;;;;;;0.40;0.00;;;;;;;25.83;49.55;99913.85;104094;1275;137931;-70
2022/06/08 11:30:57;;;;;;;0.40;0.00;;;;;;;25.88;49.67;99919.02;104080;1278;94330;-70
2022/06/08 11:33:50;;;;;;;0.40;0.00;;;;;;;25.82;49.45;99921.63;104122;1277;105469;-70
2022/06/08 11:36:40;;;;;;;0.40;0.00;;;;;;;25.62;49.97;99919.88;104069;1280;99276;-70
2022/06/08 11:39:51;;;;;;;0.40;0.00;;;;;;;25.58;50.02;99920.63;104283;1277;108915;-70
2022/06/08 11:42:24;;;;;;;0.40;0.00;;;;;;;25.51;50.47;99922.57;103977;1277;94800;-70
2022/06/08 11:44:58;;;;;;;0.40;0.00;;;;;;;25.45;50.54;99918.11;104142;1277;94360;-70
2022/06/08 11:47:34;;;;;;;0.40;0.00;;;;;;;25.41;50.47;99921.28;104008;1277;137389;-71
2022/06/08 11:50:14;;;;;;;0.40;0.00;;;;;;;25.38;50.56;99917.50;104092;1277;99472;-70
2022/06/08 11:52:46;;;;;;;0.40;0.10;;;;;;;25.40;50.33;99914.92;104091;1278;137388;-71
2022/06/08 11:55:24;;;;;;;0.40;0.00;;;;;;;25.47;50.67;99920.83;103653;1277;94315;-71
2022/06/08 11:57:54;;;;;;;0.40;0.00;;;;;;;25.47;50.66;99918.05;104053;1277;137639;-70
2022/06/08 12:00:51;;;;;;;0.40;0.10;;;;;;;25.44;50.75;99915.45;104096;1280;105642;-71
2022/06/08 12:03:34;;;;;;;0.40;0.00;;;;;;;25.35;50.99;99910.88;104081;1277;99239;-69
2022/06/08 12:06:13;;;;;;;0.40;0.00;;;;;;;25.30;50.80;99915.34;104077;1278;109581;-70
2022/06/08 12:08:46;;;;;;;0.40;0.10;;;;;;;25.23;51.19;99915.41;104037;1278;94575;-69
2022/06/08 12:11:30;;;;;;;0.40;0.00;;;;;;;25.11;51.21;99913.15;103536;1277;137448;-70